sensor_id;sensor_type;location;lat;lon;timestamp;P1;durP1;ratioP1;P2;durP2;ratioP2
7383;SDS011;3733;47.994;8.820;2023-07-20T00:01:14;5.30;;;2.70;;
7383;SDS011;3733;47.994;8.820;2023-07-20T00:03:40;7.60;;;2.53;;
7383;SDS011;3733;47.994;8.820;2023-07-20T00:06:06;18.00;;;2.47;;
7383;SDS011;3733;47.994;8.820;2023-07-20T00:08:32;7.67;;;2.77;;
7383;SDS011;3733;47.994;8.820;2023-07-20T00:10:57;5.53;;;2.93;;
7383;SDS011;3733;47.994;8.820;2023-07-20T00:13:23;7.07;;;2.90;;
7383;SDS011;3733;47.994;8.820;2023-07-20T00:15:49;10.23;;;2.77;;
7383;SDS011;3733;47.994;8.820;2023-07-20T00:18:16;8.03;;;3.00;;
7383;SDS011;3733;47.994;8.820;2023-07-20T00:20:41;7.57;;;3.33;;
7383;SDS011;3733;47.994;8.820;2023-07-20T00:23:07;4.97;;;2.80;;
7383;SDS011;3733;47.994;8.820;2023-07-20T00:25:32;9.53;;;2.90;;
7383;SDS011;3733;47.994;8.820;2023-07-20T00:27:58;13.40;;;4.13;;
7383;SDS011;3733;47.994;8.820;2023-07-20T00:30:24;7.00;;;2.80;;
7383;SDS011;3733;47.994;8.820;2023-07-20T00:32:50;4.90;;;2.70;;
7383;SDS011;3733;47.994;8.820;2023-07-20T00:35:15;6.53;;;3.03;;
7383;SDS011;3733;47.994;8.820;2023-07-20T00:37:41;5.70;;;3.40;;
7383;SDS011;3733;47.994;8.820;2023-07-20T00:40:07;3.67;;;2.97;;
7383;SDS011;3733;47.994;8.820;2023-07-20T00:42:33;5.13;;;3.23;;
7383;SDS011;3733;47.994;8.820;2023-07-20T00:44:59;8.43;;;3.27;;
7383;SDS011;3733;47.994;8.820;2023-07-20T00:47:25;6.00;;;3.30;;
7383;SDS011;3733;47.994;8.820;2023-07-20T00:49:51;11.03;;;3.50;;
7383;SDS011;3733;47.994;8.820;2023-07-20T00:52:18;4.87;;;2.83;;
7383;SDS011;3733;47.994;8.820;2023-07-20T00:54:45;8.20;;;3.43;;
7383;SDS011;3733;47.994;8.820;2023-07-20T00:57:12;4.53;;;3.47;;
7383;SDS011;3733;47.994;8.820;2023-07-20T00:59:40;3.70;;;3.03;;
7383;SDS011;3733;47.994;8.820;2023-07-20T01:02:06;8.10;;;3.43;;
7383;SDS011;3733;47.994;8.820;2023-07-20T01:04:32;11.13;;;3.60;;
7383;SDS011;3733;47.994;8.820;2023-07-20T01:07:11;9.30;;;2.90;;
7383;SDS011;3733;47.994;8.820;2023-07-20T01:09:44;6.90;;;3.63;;
7383;SDS011;3733;47.994;8.820;2023-07-20T01:12:26;4.13;;;3.10;;
7383;SDS011;3733;47.994;8.820;2023-07-20T01:14:58;10.33;;;3.30;;
7383;SDS011;3733;47.994;8.820;2023-07-20T01:17:23;6.53;;;3.07;;
7383;SDS011;3733;47.994;8.820;2023-07-20T01:19:49;11.17;;;3.70;;
7383;SDS011;3733;47.994;8.820;2023-07-20T01:25:15;6.90;;;3.60;;
7383;SDS011;3733;47.994;8.820;2023-07-20T01:33:52;4.83;;;2.90;;
7383;SDS011;3733;47.994;8.820;2023-07-20T01:36:21;7.00;;;3.47;;
7383;SDS011;3733;47.994;8.820;2023-07-20T01:38:48;5.80;;;3.43;;
7383;SDS011;3733;47.994;8.820;2023-07-20T01:41:14;5.87;;;3.83;;
7383;SDS011;3733;47.994;8.820;2023-07-20T01:43:40;10.60;;;3.57;;
7383;SDS011;3733;47.994;8.820;2023-07-20T01:46:07;5.47;;;3.20;;
7383;SDS011;3733;47.994;8.820;2023-07-20T01:48:32;6.97;;;3.20;;
7383;SDS011;3733;47.994;8.820;2023-07-20T01:50:58;5.80;;;3.43;;
7383;SDS011;3733;47.994;8.820;2023-07-20T01:53:23;5.23;;;3.47;;
7383;SDS011;3733;47.994;8.820;2023-07-20T01:55:49;4.80;;;3.30;;
7383;SDS011;3733;47.994;8.820;2023-07-20T01:58:17;5.53;;;3.40;;
7383;SDS011;3733;47.994;8.820;2023-07-20T02:00:42;9.30;;;3.57;;
7383;SDS011;3733;47.994;8.820;2023-07-20T02:03:08;11.70;;;3.43;;
7383;SDS011;3733;47.994;8.820;2023-07-20T02:05:34;5.30;;;3.43;;
7383;SDS011;3733;47.994;8.820;2023-07-20T02:07:59;4.30;;;3.37;;
7383;SDS011;3733;47.994;8.820;2023-07-20T02:10:25;7.00;;;4.07;;
7383;SDS011;3733;47.994;8.820;2023-07-20T02:12:50;5.77;;;3.17;;
7383;SDS011;3733;47.994;8.820;2023-07-20T02:15:16;6.73;;;3.80;;
7383;SDS011;3733;47.994;8.820;2023-07-20T02:17:43;5.37;;;3.53;;
7383;SDS011;3733;47.994;8.820;2023-07-20T02:20:09;6.90;;;3.90;;
7383;SDS011;3733;47.994;8.820;2023-07-20T02:22:36;4.60;;;3.60;;
7383;SDS011;3733;47.994;8.820;2023-07-20T02:25:03;9.30;;;3.80;;
7383;SDS011;3733;47.994;8.820;2023-07-20T02:27:30;4.67;;;3.53;;
7383;SDS011;3733;47.994;8.820;2023-07-20T02:29:55;7.10;;;3.73;;
7383;SDS011;3733;47.994;8.820;2023-07-20T02:32:21;5.70;;;3.67;;
7383;SDS011;3733;47.994;8.820;2023-07-20T02:34:47;8.47;;;3.90;;
7383;SDS011;3733;47.994;8.820;2023-07-20T02:37:12;8.07;;;4.20;;
7383;SDS011;3733;47.994;8.820;2023-07-20T02:39:38;12.77;;;3.80;;
7383;SDS011;3733;47.994;8.820;2023-07-20T02:42:04;5.00;;;3.07;;
7383;SDS011;3733;47.994;8.820;2023-07-20T02:44:31;5.40;;;3.70;;
7383;SDS011;3733;47.994;8.820;2023-07-20T02:46:56;5.40;;;3.63;;
7383;SDS011;3733;47.994;8.820;2023-07-20T02:49:22;6.77;;;4.53;;
7383;SDS011;3733;47.994;8.820;2023-07-20T02:51:47;9.27;;;3.70;;
7383;SDS011;3733;47.994;8.820;2023-07-20T02:54:13;7.80;;;4.80;;
7383;SDS011;3733;47.994;8.820;2023-07-20T02:56:38;8.20;;;4.20;;
7383;SDS011;3733;47.994;8.820;2023-07-20T02:59:04;10.07;;;3.73;;
7383;SDS011;3733;47.994;8.820;2023-07-20T03:01:29;7.70;;;4.13;;
7383;SDS011;3733;47.994;8.820;2023-07-20T03:03:55;8.43;;;4.73;;
7383;SDS011;3733;47.994;8.820;2023-07-20T03:06:21;7.57;;;4.00;;
7383;SDS011;3733;47.994;8.820;2023-07-20T03:08:47;7.30;;;3.70;;
7383;SDS011;3733;47.994;8.820;2023-07-20T03:11:16;5.57;;;3.80;;
7383;SDS011;3733;47.994;8.820;2023-07-20T03:13:43;8.00;;;4.23;;
7383;SDS011;3733;47.994;8.820;2023-07-20T03:16:09;8.80;;;4.07;;
7383;SDS011;3733;47.994;8.820;2023-07-20T03:18:37;8.43;;;3.93;;
7383;SDS011;3733;47.994;8.820;2023-07-20T03:21:04;7.40;;;3.70;;
7383;SDS011;3733;47.994;8.820;2023-07-20T03:23:30;5.13;;;3.63;;
7383;SDS011;3733;47.994;8.820;2023-07-20T03:25:56;8.00;;;4.10;;
7383;SDS011;3733;47.994;8.820;2023-07-20T03:28:21;6.90;;;3.70;;
7383;SDS011;3733;47.994;8.820;2023-07-20T03:30:52;11.53;;;4.00;;
7383;SDS011;3733;47.994;8.820;2023-07-20T03:33:27;4.53;;;3.83;;
7383;SDS011;3733;47.994;8.820;2023-07-20T03:35:54;6.13;;;3.77;;
7383;SDS011;3733;47.994;8.820;2023-07-20T03:38:20;7.20;;;4.40;;
7383;SDS011;3733;47.994;8.820;2023-07-20T03:40:50;5.80;;;3.80;;
7383;SDS011;3733;47.994;8.820;2023-07-20T03:43:20;6.77;;;3.83;;
7383;SDS011;3733;47.994;8.820;2023-07-20T03:45:49;6.83;;;4.00;;
7383;SDS011;3733;47.994;8.820;2023-07-20T03:48:16;5.93;;;4.30;;
7383;SDS011;3733;47.994;8.820;2023-07-20T03:50:43;5.83;;;4.10;;
7383;SDS011;3733;47.994;8.820;2023-07-20T03:53:10;6.93;;;4.23;;
7383;SDS011;3733;47.994;8.820;2023-07-20T03:55:36;9.20;;;4.53;;
7383;SDS011;3733;47.994;8.820;2023-07-20T03:58:01;8.57;;;3.77;;
7383;SDS011;3733;47.994;8.820;2023-07-20T04:00:28;5.77;;;3.87;;
7383;SDS011;3733;47.994;8.820;2023-07-20T04:02:53;14.63;;;4.20;;
7383;SDS011;3733;47.994;8.820;2023-07-20T04:05:19;5.17;;;3.77;;
7383;SDS011;3733;47.994;8.820;2023-07-20T04:07:45;6.50;;;3.90;;
7383;SDS011;3733;47.994;8.820;2023-07-20T04:10:10;9.60;;;4.03;;
7383;SDS011;3733;47.994;8.820;2023-07-20T04:12:36;4.70;;;3.83;;
7383;SDS011;3733;47.994;8.820;2023-07-20T04:15:02;5.30;;;3.77;;
7383;SDS011;3733;47.994;8.820;2023-07-20T04:17:28;8.50;;;4.20;;
7383;SDS011;3733;47.994;8.820;2023-07-20T04:19:54;12.63;;;5.10;;
7383;SDS011;3733;47.994;8.820;2023-07-20T04:22:20;5.87;;;4.43;;
7383;SDS011;3733;47.994;8.820;2023-07-20T04:24:46;8.00;;;4.43;;
7383;SDS011;3733;47.994;8.820;2023-07-20T04:27:11;5.27;;;4.43;;
7383;SDS011;3733;47.994;8.820;2023-07-20T04:29:37;5.87;;;3.90;;
7383;SDS011;3733;47.994;8.820;2023-07-20T04:32:03;6.10;;;4.00;;
7383;SDS011;3733;47.994;8.820;2023-07-20T04:34:29;6.47;;;4.10;;
7383;SDS011;3733;47.994;8.820;2023-07-20T04:36:54;7.43;;;4.07;;
7383;SDS011;3733;47.994;8.820;2023-07-20T04:39:20;12.70;;;4.87;;
7383;SDS011;3733;47.994;8.820;2023-07-20T04:41:45;6.67;;;3.80;;
7383;SDS011;3733;47.994;8.820;2023-07-20T04:44:11;6.40;;;4.13;;
7383;SDS011;3733;47.994;8.820;2023-07-20T04:46:38;8.90;;;4.40;;
7383;SDS011;3733;47.994;8.820;2023-07-20T04:49:05;10.97;;;4.40;;
7383;SDS011;3733;47.994;8.820;2023-07-20T04:51:31;5.37;;;4.20;;
7383;SDS011;3733;47.994;8.820;2023-07-20T04:53:56;8.50;;;4.50;;
7383;SDS011;3733;47.994;8.820;2023-07-20T04:56:23;8.47;;;5.37;;
7383;SDS011;3733;47.994;8.820;2023-07-20T04:58:49;6.70;;;4.17;;
7383;SDS011;3733;47.994;8.820;2023-07-20T05:01:15;6.63;;;3.77;;
7383;SDS011;3733;47.994;8.820;2023-07-20T05:03:41;5.37;;;3.80;;
7383;SDS011;3733;47.994;8.820;2023-07-20T05:06:06;6.77;;;3.93;;
7383;SDS011;3733;47.994;8.820;2023-07-20T05:08:32;6.63;;;4.00;;
7383;SDS011;3733;47.994;8.820;2023-07-20T05:10:59;6.73;;;3.90;;
7383;SDS011;3733;47.994;8.820;2023-07-20T05:13:25;6.03;;;3.97;;
7383;SDS011;3733;47.994;8.820;2023-07-20T05:15:53;7.00;;;3.80;;
7383;SDS011;3733;47.994;8.820;2023-07-20T05:18:19;11.43;;;4.70;;
7383;SDS011;3733;47.994;8.820;2023-07-20T05:20:49;13.00;;;3.93;;
7383;SDS011;3733;47.994;8.820;2023-07-20T05:23:18;10.57;;;4.80;;
7383;SDS011;3733;47.994;8.820;2023-07-20T05:25:47;19.17;;;4.20;;
7383;SDS011;3733;47.994;8.820;2023-07-20T05:28:20;6.50;;;4.20;;
7383;SDS011;3733;47.994;8.820;2023-07-20T05:30:45;13.27;;;5.03;;
7383;SDS011;3733;47.994;8.820;2023-07-20T05:33:11;8.07;;;4.30;;
7383;SDS011;3733;47.994;8.820;2023-07-20T05:35:36;6.63;;;3.97;;
7383;SDS011;3733;47.994;8.820;2023-07-20T05:38:02;8.50;;;4.30;;
7383;SDS011;3733;47.994;8.820;2023-07-20T05:40:30;9.83;;;4.47;;
7383;SDS011;3733;47.994;8.820;2023-07-20T05:42:56;7.53;;;3.93;;
7383;SDS011;3733;47.994;8.820;2023-07-20T05:45:22;6.97;;;4.83;;
7383;SDS011;3733;47.994;8.820;2023-07-20T05:47:48;11.00;;;5.13;;
7383;SDS011;3733;47.994;8.820;2023-07-20T05:50:13;10.00;;;6.03;;
7383;SDS011;3733;47.994;8.820;2023-07-20T05:52:39;12.87;;;5.60;;
7383;SDS011;3733;47.994;8.820;2023-07-20T05:55:05;6.90;;;5.30;;
7383;SDS011;3733;47.994;8.820;2023-07-20T05:57:32;8.93;;;5.17;;
7383;SDS011;3733;47.994;8.820;2023-07-20T05:59:57;11.10;;;6.50;;
7383;SDS011;3733;47.994;8.820;2023-07-20T06:02:23;19.43;;;6.43;;
7383;SDS011;3733;47.994;8.820;2023-07-20T06:04:49;11.63;;;4.90;;
7383;SDS011;3733;47.994;8.820;2023-07-20T06:07:14;13.03;;;6.00;;
7383;SDS011;3733;47.994;8.820;2023-07-20T06:09:40;18.00;;;5.50;;
7383;SDS011;3733;47.994;8.820;2023-07-20T06:12:06;5.90;;;4.90;;
7383;SDS011;3733;47.994;8.820;2023-07-20T06:14:32;10.40;;;4.80;;
7383;SDS011;3733;47.994;8.820;2023-07-20T06:16:58;7.13;;;3.90;;
7383;SDS011;3733;47.994;8.820;2023-07-20T06:19:24;11.40;;;4.80;;
7383;SDS011;3733;47.994;8.820;2023-07-20T06:21:49;8.47;;;4.67;;
7383;SDS011;3733;47.994;8.820;2023-07-20T06:24:16;7.53;;;4.00;;
7383;SDS011;3733;47.994;8.820;2023-07-20T06:26:41;5.63;;;4.07;;
7383;SDS011;3733;47.994;8.820;2023-07-20T06:29:07;5.33;;;4.67;;
7383;SDS011;3733;47.994;8.820;2023-07-20T06:31:36;10.23;;;4.67;;
7383;SDS011;3733;47.994;8.820;2023-07-20T06:34:02;8.10;;;4.77;;
7383;SDS011;3733;47.994;8.820;2023-07-20T06:36:28;15.63;;;5.67;;
7383;SDS011;3733;47.994;8.820;2023-07-20T06:38:55;23.87;;;5.13;;
7383;SDS011;3733;47.994;8.820;2023-07-20T06:41:21;9.07;;;5.30;;
7383;SDS011;3733;47.994;8.820;2023-07-20T06:43:47;10.90;;;6.00;;
7383;SDS011;3733;47.994;8.820;2023-07-20T06:46:12;8.03;;;5.10;;
7383;SDS011;3733;47.994;8.820;2023-07-20T06:48:38;11.47;;;6.37;;
7383;SDS011;3733;47.994;8.820;2023-07-20T06:51:05;14.50;;;5.90;;
7383;SDS011;3733;47.994;8.820;2023-07-20T06:53:31;9.07;;;5.50;;
7383;SDS011;3733;47.994;8.820;2023-07-20T06:55:57;13.57;;;5.87;;
7383;SDS011;3733;47.994;8.820;2023-07-20T06:58:23;8.83;;;5.03;;
7383;SDS011;3733;47.994;8.820;2023-07-20T07:00:49;14.70;;;4.60;;
7383;SDS011;3733;47.994;8.820;2023-07-20T07:03:15;16.60;;;5.60;;
7383;SDS011;3733;47.994;8.820;2023-07-20T07:05:41;10.23;;;4.50;;
7383;SDS011;3733;47.994;8.820;2023-07-20T07:08:07;21.17;;;5.63;;
7383;SDS011;3733;47.994;8.820;2023-07-20T07:10:34;13.00;;;4.50;;
7383;SDS011;3733;47.994;8.820;2023-07-20T07:13:00;9.50;;;4.27;;
7383;SDS011;3733;47.994;8.820;2023-07-20T07:15:26;5.47;;;3.47;;
7383;SDS011;3733;47.994;8.820;2023-07-20T07:17:52;13.03;;;4.03;;
7383;SDS011;3733;47.994;8.820;2023-07-20T07:20:18;13.40;;;4.30;;
7383;SDS011;3733;47.994;8.820;2023-07-20T07:22:44;6.13;;;4.07;;
7383;SDS011;3733;47.994;8.820;2023-07-20T07:25:10;6.10;;;3.63;;
7383;SDS011;3733;47.994;8.820;2023-07-20T07:27:36;5.40;;;3.57;;
7383;SDS011;3733;47.994;8.820;2023-07-20T07:30:02;7.10;;;3.50;;
7383;SDS011;3733;47.994;8.820;2023-07-20T07:32:28;7.80;;;2.83;;
7383;SDS011;3733;47.994;8.820;2023-07-20T07:34:53;4.70;;;3.33;;
7383;SDS011;3733;47.994;8.820;2023-07-20T07:37:20;8.80;;;3.33;;
7383;SDS011;3733;47.994;8.820;2023-07-20T07:39:45;9.57;;;3.50;;
7383;SDS011;3733;47.994;8.820;2023-07-20T07:42:11;7.10;;;3.80;;
7383;SDS011;3733;47.994;8.820;2023-07-20T07:44:37;9.53;;;3.67;;
7383;SDS011;3733;47.994;8.820;2023-07-20T07:47:03;6.37;;;3.43;;
7383;SDS011;3733;47.994;8.820;2023-07-20T07:49:29;8.20;;;3.73;;
7383;SDS011;3733;47.994;8.820;2023-07-20T07:51:54;6.60;;;3.40;;
7383;SDS011;3733;47.994;8.820;2023-07-20T07:54:20;6.57;;;3.20;;
7383;SDS011;3733;47.994;8.820;2023-07-20T07:56:45;7.67;;;3.30;;
7383;SDS011;3733;47.994;8.820;2023-07-20T07:59:11;7.30;;;3.33;;
7383;SDS011;3733;47.994;8.820;2023-07-20T08:01:37;5.80;;;3.60;;
7383;SDS011;3733;47.994;8.820;2023-07-20T08:04:02;3.53;;;3.17;;
7383;SDS011;3733;47.994;8.820;2023-07-20T08:06:28;3.63;;;3.07;;
7383;SDS011;3733;47.994;8.820;2023-07-20T08:08:54;5.83;;;2.93;;
7383;SDS011;3733;47.994;8.820;2023-07-20T08:11:20;5.10;;;2.90;;
7383;SDS011;3733;47.994;8.820;2023-07-20T08:13:45;9.70;;;3.50;;
7383;SDS011;3733;47.994;8.820;2023-07-20T08:16:11;5.20;;;2.73;;
7383;SDS011;3733;47.994;8.820;2023-07-20T08:18:37;4.27;;;3.10;;
7383;SDS011;3733;47.994;8.820;2023-07-20T08:21:02;4.57;;;3.50;;
7383;SDS011;3733;47.994;8.820;2023-07-20T08:23:28;9.40;;;3.10;;
7383;SDS011;3733;47.994;8.820;2023-07-20T08:25:54;7.67;;;3.13;;
7383;SDS011;3733;47.994;8.820;2023-07-20T08:28:20;7.53;;;2.70;;
7383;SDS011;3733;47.994;8.820;2023-07-20T08:30:46;7.97;;;3.20;;
7383;SDS011;3733;47.994;8.820;2023-07-20T08:33:13;3.93;;;2.90;;
7383;SDS011;3733;47.994;8.820;2023-07-20T08:35:40;10.83;;;3.60;;
7383;SDS011;3733;47.994;8.820;2023-07-20T08:38:06;8.30;;;3.10;;
7383;SDS011;3733;47.994;8.820;2023-07-20T08:40:33;5.47;;;3.10;;
7383;SDS011;3733;47.994;8.820;2023-07-20T08:42:59;3.90;;;3.00;;
7383;SDS011;3733;47.994;8.820;2023-07-20T08:45:25;8.60;;;2.97;;
7383;SDS011;3733;47.994;8.820;2023-07-20T08:47:57;5.80;;;2.87;;
7383;SDS011;3733;47.994;8.820;2023-07-20T08:50:25;7.70;;;2.53;;
7383;SDS011;3733;47.994;8.820;2023-07-20T08:52:52;6.93;;;3.00;;
7383;SDS011;3733;47.994;8.820;2023-07-20T08:55:21;4.43;;;3.10;;
7383;SDS011;3733;47.994;8.820;2023-07-20T08:57:49;5.33;;;3.30;;
7383;SDS011;3733;47.994;8.820;2023-07-20T09:00:17;7.93;;;3.50;;
7383;SDS011;3733;47.994;8.820;2023-07-20T09:02:45;5.83;;;3.40;;
7383;SDS011;3733;47.994;8.820;2023-07-20T09:05:14;5.83;;;2.90;;
7383;SDS011;3733;47.994;8.820;2023-07-20T09:07:40;4.13;;;2.83;;
7383;SDS011;3733;47.994;8.820;2023-07-20T09:10:06;10.53;;;3.40;;
7383;SDS011;3733;47.994;8.820;2023-07-20T09:12:35;5.70;;;2.97;;
7383;SDS011;3733;47.994;8.820;2023-07-20T09:15:02;9.33;;;3.30;;
7383;SDS011;3733;47.994;8.820;2023-07-20T09:17:28;3.10;;;2.70;;
7383;SDS011;3733;47.994;8.820;2023-07-20T09:19:53;4.37;;;3.23;;
7383;SDS011;3733;47.994;8.820;2023-07-20T09:22:19;4.00;;;2.63;;
7383;SDS011;3733;47.994;8.820;2023-07-20T09:24:45;7.10;;;3.10;;
7383;SDS011;3733;47.994;8.820;2023-07-20T09:27:11;5.00;;;2.57;;
7383;SDS011;3733;47.994;8.820;2023-07-20T09:29:49;6.07;;;3.50;;
7383;SDS011;3733;47.994;8.820;2023-07-20T09:32:19;5.73;;;2.70;;
7383;SDS011;3733;47.994;8.820;2023-07-20T09:34:45;5.53;;;2.83;;
7383;SDS011;3733;47.994;8.820;2023-07-20T09:37:11;6.70;;;3.00;;
7383;SDS011;3733;47.994;8.820;2023-07-20T09:39:46;10.43;;;3.17;;
7383;SDS011;3733;47.994;8.820;2023-07-20T09:42:12;6.80;;;3.40;;
7383;SDS011;3733;47.994;8.820;2023-07-20T09:44:39;4.80;;;3.33;;
7383;SDS011;3733;47.994;8.820;2023-07-20T09:47:05;3.43;;;2.90;;
7383;SDS011;3733;47.994;8.820;2023-07-20T09:49:31;5.37;;;2.70;;
7383;SDS011;3733;47.994;8.820;2023-07-20T09:51:57;5.80;;;3.37;;
7383;SDS011;3733;47.994;8.820;2023-07-20T09:54:25;5.63;;;2.57;;
7383;SDS011;3733;47.994;8.820;2023-07-20T09:56:52;6.67;;;3.03;;
7383;SDS011;3733;47.994;8.820;2023-07-20T09:59:18;6.80;;;3.10;;
7383;SDS011;3733;47.994;8.820;2023-07-20T10:01:44;3.43;;;2.70;;
7383;SDS011;3733;47.994;8.820;2023-07-20T10:04:12;8.27;;;4.40;;
7383;SDS011;3733;47.994;8.820;2023-07-20T10:06:42;3.43;;;2.80;;
7383;SDS011;3733;47.994;8.820;2023-07-20T10:09:08;4.83;;;3.03;;
7383;SDS011;3733;47.994;8.820;2023-07-20T10:11:37;6.30;;;3.63;;
7383;SDS011;3733;47.994;8.820;2023-07-20T10:14:08;3.50;;;3.20;;
7383;SDS011;3733;47.994;8.820;2023-07-20T10:16:39;6.70;;;3.13;;
7383;SDS011;3733;47.994;8.820;2023-07-20T10:22:10;6.40;;;3.20;;
7383;SDS011;3733;47.994;8.820;2023-07-20T10:24:39;4.93;;;2.83;;
7383;SDS011;3733;47.994;8.820;2023-07-20T10:27:10;8.43;;;3.30;;
7383;SDS011;3733;47.994;8.820;2023-07-20T10:29:36;5.90;;;2.43;;
7383;SDS011;3733;47.994;8.820;2023-07-20T10:32:03;4.17;;;2.60;;
7383;SDS011;3733;47.994;8.820;2023-07-20T10:34:29;3.73;;;2.43;;
7383;SDS011;3733;47.994;8.820;2023-07-20T10:36:55;5.00;;;2.67;;
7383;SDS011;3733;47.994;8.820;2023-07-20T10:39:24;5.17;;;2.47;;
7383;SDS011;3733;47.994;8.820;2023-07-20T10:41:59;2.73;;;2.30;;
7383;SDS011;3733;47.994;8.820;2023-07-20T10:44:27;4.83;;;2.70;;
7383;SDS011;3733;47.994;8.820;2023-07-20T10:46:52;5.00;;;2.83;;
7383;SDS011;3733;47.994;8.820;2023-07-20T10:49:27;6.30;;;2.60;;
7383;SDS011;3733;47.994;8.820;2023-07-20T10:51:57;3.27;;;2.73;;
7383;SDS011;3733;47.994;8.820;2023-07-20T10:56:55;6.00;;;2.73;;
7383;SDS011;3733;47.994;8.820;2023-07-20T10:59:42;4.90;;;2.60;;
7383;SDS011;3733;47.994;8.820;2023-07-20T11:02:07;3.50;;;2.60;;
7383;SDS011;3733;47.994;8.820;2023-07-20T11:04:43;4.80;;;2.37;;
7383;SDS011;3733;47.994;8.820;2023-07-20T11:07:10;6.13;;;2.27;;
7383;SDS011;3733;47.994;8.820;2023-07-20T11:09:41;7.33;;;2.80;;
7383;SDS011;3733;47.994;8.820;2023-07-20T11:14:39;5.80;;;2.50;;
7383;SDS011;3733;47.994;8.820;2023-07-20T11:17:12;4.20;;;2.63;;
7383;SDS011;3733;47.994;8.820;2023-07-20T11:19:39;4.60;;;2.70;;
7383;SDS011;3733;47.994;8.820;2023-07-20T11:22:08;2.40;;;2.20;;
7383;SDS011;3733;47.994;8.820;2023-07-20T11:24:34;4.50;;;2.23;;
7383;SDS011;3733;47.994;8.820;2023-07-20T11:27:04;6.53;;;2.70;;
7383;SDS011;3733;47.994;8.820;2023-07-20T11:29:30;3.00;;;2.23;;
7383;SDS011;3733;47.994;8.820;2023-07-20T11:31:56;5.17;;;2.13;;
7383;SDS011;3733;47.994;8.820;2023-07-20T11:34:23;3.13;;;2.43;;
7383;SDS011;3733;47.994;8.820;2023-07-20T11:36:49;6.23;;;2.30;;
7383;SDS011;3733;47.994;8.820;2023-07-20T11:39:16;10.53;;;2.80;;
7383;SDS011;3733;47.994;8.820;2023-07-20T11:41:46;2.90;;;2.00;;
7383;SDS011;3733;47.994;8.820;2023-07-20T11:44:22;6.33;;;2.53;;
7383;SDS011;3733;47.994;8.820;2023-07-20T11:47:28;2.97;;;2.40;;
7383;SDS011;3733;47.994;8.820;2023-07-20T11:49:45;3.07;;;2.10;;
7383;SDS011;3733;47.994;8.820;2023-07-20T11:52:16;5.90;;;2.60;;
7383;SDS011;3733;47.994;8.820;2023-07-20T11:54:42;4.90;;;2.33;;
7383;SDS011;3733;47.994;8.820;2023-07-20T11:57:21;2.37;;;2.17;;
7383;SDS011;3733;47.994;8.820;2023-07-20T11:59:56;5.30;;;2.53;;
7383;SDS011;3733;47.994;8.820;2023-07-20T12:02:29;2.43;;;1.80;;
7383;SDS011;3733;47.994;8.820;2023-07-20T12:04:54;3.17;;;2.20;;
7383;SDS011;3733;47.994;8.820;2023-07-20T12:07:21;5.50;;;2.20;;
7383;SDS011;3733;47.994;8.820;2023-07-20T12:12:37;7.13;;;2.13;;
7383;SDS011;3733;47.994;8.820;2023-07-20T12:17:45;2.73;;;1.93;;
7383;SDS011;3733;47.994;8.820;2023-07-20T12:20:11;4.37;;;2.20;;
7383;SDS011;3733;47.994;8.820;2023-07-20T12:22:38;4.30;;;2.43;;
7383;SDS011;3733;47.994;8.820;2023-07-20T12:25:08;5.97;;;2.50;;
7383;SDS011;3733;47.994;8.820;2023-07-20T12:27:37;4.30;;;2.23;;
7383;SDS011;3733;47.994;8.820;2023-07-20T12:30:04;2.10;;;1.90;;
7383;SDS011;3733;47.994;8.820;2023-07-20T12:32:31;6.00;;;2.10;;
7383;SDS011;3733;47.994;8.820;2023-07-20T12:34:56;5.80;;;2.30;;
7383;SDS011;3733;47.994;8.820;2023-07-20T12:37:22;3.53;;;2.30;;
7383;SDS011;3733;47.994;8.820;2023-07-20T12:39:48;4.20;;;2.20;;
7383;SDS011;3733;47.994;8.820;2023-07-20T12:42:14;5.33;;;2.00;;
7383;SDS011;3733;47.994;8.820;2023-07-20T12:44:42;3.27;;;2.23;;
7383;SDS011;3733;47.994;8.820;2023-07-20T12:47:08;4.50;;;2.23;;
7383;SDS011;3733;47.994;8.820;2023-07-20T12:49:33;2.80;;;2.20;;
7383;SDS011;3733;47.994;8.820;2023-07-20T12:51:59;3.17;;;1.90;;
7383;SDS011;3733;47.994;8.820;2023-07-20T12:54:25;2.53;;;2.03;;
7383;SDS011;3733;47.994;8.820;2023-07-20T12:56:50;5.00;;;2.07;;
7383;SDS011;3733;47.994;8.820;2023-07-20T12:59:16;3.33;;;2.07;;
7383;SDS011;3733;47.994;8.820;2023-07-20T13:01:41;6.33;;;2.47;;
7383;SDS011;3733;47.994;8.820;2023-07-20T13:04:08;3.30;;;2.00;;
7383;SDS011;3733;47.994;8.820;2023-07-20T13:06:35;5.43;;;2.53;;
7383;SDS011;3733;47.994;8.820;2023-07-20T13:09:00;4.67;;;2.47;;
7383;SDS011;3733;47.994;8.820;2023-07-20T13:11:26;2.73;;;2.10;;
7383;SDS011;3733;47.994;8.820;2023-07-20T13:13:52;5.33;;;2.50;;
7383;SDS011;3733;47.994;8.820;2023-07-20T13:16:17;3.37;;;2.20;;
7383;SDS011;3733;47.994;8.820;2023-07-20T13:18:43;3.87;;;2.13;;
7383;SDS011;3733;47.994;8.820;2023-07-20T13:21:08;2.90;;;1.93;;
7383;SDS011;3733;47.994;8.820;2023-07-20T13:23:38;4.20;;;2.40;;
7383;SDS011;3733;47.994;8.820;2023-07-20T13:26:04;4.93;;;2.63;;
7383;SDS011;3733;47.994;8.820;2023-07-20T13:28:30;2.10;;;1.73;;
7383;SDS011;3733;47.994;8.820;2023-07-20T13:30:56;5.30;;;2.67;;
7383;SDS011;3733;47.994;8.820;2023-07-20T13:33:21;5.93;;;2.00;;
7383;SDS011;3733;47.994;8.820;2023-07-20T13:35:47;2.50;;;1.90;;
7383;SDS011;3733;47.994;8.820;2023-07-20T13:38:12;6.10;;;2.37;;
7383;SDS011;3733;47.994;8.820;2023-07-20T13:40:38;9.20;;;2.40;;
7383;SDS011;3733;47.994;8.820;2023-07-20T13:43:04;2.00;;;1.80;;
7383;SDS011;3733;47.994;8.820;2023-07-20T13:45:29;3.80;;;2.30;;
7383;SDS011;3733;47.994;8.820;2023-07-20T13:47:55;3.43;;;1.77;;
7383;SDS011;3733;47.994;8.820;2023-07-20T13:50:20;5.13;;;2.20;;
7383;SDS011;3733;47.994;8.820;2023-07-20T13:52:46;3.10;;;2.13;;
7383;SDS011;3733;47.994;8.820;2023-07-20T13:55:12;3.67;;;1.90;;
7383;SDS011;3733;47.994;8.820;2023-07-20T13:57:38;2.27;;;2.00;;
7383;SDS011;3733;47.994;8.820;2023-07-20T14:00:04;6.53;;;2.40;;
7383;SDS011;3733;47.994;8.820;2023-07-20T14:02:30;4.73;;;2.30;;
7383;SDS011;3733;47.994;8.820;2023-07-20T14:04:55;3.57;;;2.10;;
7383;SDS011;3733;47.994;8.820;2023-07-20T14:07:22;4.47;;;2.53;;
7383;SDS011;3733;47.994;8.820;2023-07-20T14:09:47;6.60;;;2.37;;
7383;SDS011;3733;47.994;8.820;2023-07-20T14:12:13;3.60;;;2.37;;
7383;SDS011;3733;47.994;8.820;2023-07-20T14:14:39;5.50;;;2.40;;
7383;SDS011;3733;47.994;8.820;2023-07-20T14:17:06;5.33;;;2.40;;
7383;SDS011;3733;47.994;8.820;2023-07-20T14:19:32;4.30;;;2.20;;
7383;SDS011;3733;47.994;8.820;2023-07-20T14:21:57;6.67;;;2.40;;
7383;SDS011;3733;47.994;8.820;2023-07-20T14:24:24;3.47;;;1.87;;
7383;SDS011;3733;47.994;8.820;2023-07-20T14:26:51;3.03;;;2.07;;
7383;SDS011;3733;47.994;8.820;2023-07-20T14:29:16;4.50;;;2.30;;
7383;SDS011;3733;47.994;8.820;2023-07-20T14:31:43;4.40;;;2.30;;
7383;SDS011;3733;47.994;8.820;2023-07-20T14:34:09;15.43;;;3.10;;
7383;SDS011;3733;47.994;8.820;2023-07-20T14:36:35;3.80;;;2.40;;
7383;SDS011;3733;47.994;8.820;2023-07-20T14:39:00;2.93;;;1.90;;
7383;SDS011;3733;47.994;8.820;2023-07-20T14:41:26;2.90;;;2.60;;
7383;SDS011;3733;47.994;8.820;2023-07-20T14:43:52;2.50;;;1.90;;
7383;SDS011;3733;47.994;8.820;2023-07-20T14:46:17;2.60;;;2.13;;
7383;SDS011;3733;47.994;8.820;2023-07-20T14:48:43;2.70;;;2.23;;
7383;SDS011;3733;47.994;8.820;2023-07-20T14:51:08;3.43;;;2.10;;
7383;SDS011;3733;47.994;8.820;2023-07-20T14:53:35;3.33;;;2.40;;
7383;SDS011;3733;47.994;8.820;2023-07-20T14:56:00;1.90;;;1.80;;
7383;SDS011;3733;47.994;8.820;2023-07-20T14:58:26;2.95;;;2.03;;
7383;SDS011;3733;47.994;8.820;2023-07-20T15:00:52;3.70;;;2.15;;
7383;SDS011;3733;47.994;8.820;2023-07-20T15:03:18;3.50;;;2.50;;
7383;SDS011;3733;47.994;8.820;2023-07-20T15:05:43;5.03;;;2.33;;
7383;SDS011;3733;47.994;8.820;2023-07-20T15:08:09;4.43;;;2.40;;
7383;SDS011;3733;47.994;8.820;2023-07-20T15:10:34;2.60;;;1.90;;
7383;SDS011;3733;47.994;8.820;2023-07-20T15:13:00;3.07;;;2.53;;
7383;SDS011;3733;47.994;8.820;2023-07-20T15:15:26;3.87;;;1.70;;
7383;SDS011;3733;47.994;8.820;2023-07-20T15:17:51;2.97;;;2.30;;
7383;SDS011;3733;47.994;8.820;2023-07-20T15:20:19;3.70;;;1.90;;
7383;SDS011;3733;47.994;8.820;2023-07-20T15:22:44;3.50;;;2.10;;
7383;SDS011;3733;47.994;8.820;2023-07-20T15:25:10;2.55;;;2.15;;
7383;SDS011;3733;47.994;8.820;2023-07-20T15:27:36;5.28;;;2.38;;
7383;SDS011;3733;47.994;8.820;2023-07-20T15:30:02;3.43;;;2.17;;
7383;SDS011;3733;47.994;8.820;2023-07-20T15:32:28;2.30;;;2.10;;